| time (UTC) | temp C | wind direction | speed KPH | gust KPH | rain 1hr cm | rain 24hr cm | rain mn cm | humidity % | barometer mb |
| 20260504060141 | 7 | 311 | 12.9 | 25.7 | 0.00 | 0.00 | 0.00 | 80 | 998.3 |
| 20260504050530 | 9 | 317 | 33.8 | 49.9 | 0.00 | 0.00 | 0.00 | 70 | |
| 20260504050108 | 8 | 325 | 30.6 | 49.9 | 0.00 | 0.00 | 0.00 | 70 | 998.7 |
| 20260504050024 | 9 | 355 | 30.6 | 49.9 | 0.00 | 0.00 | 0.00 | 70 | |
| 20260504045531 | 9 | 346 | 29.0 | 45.1 | 0.00 | 0.00 | 0.00 | 69 | |
| 20260504045048 | 9 | 333 | 27.4 | 45.1 | 0.00 | 0.00 | 0.00 | 68 | |
| 20260504044609 | 9 | 338 | 24.1 | 46.7 | 0.00 | 0.00 | 0.00 | 68 | 998.6 |
| 20260504044520 | 9 | 345 | 25.7 | 46.7 | 0.00 | 0.00 | 0.00 | 68 | |
| 20260504044015 | 9 | 332 | 33.8 | 45.1 | 0.00 | 0.00 | 0.00 | 68 | |
| 20260504043530 | 10 | 355 | 29.0 | 48.3 | 0.00 | 0.00 | 0.00 | 68 | |
| 20260504043038 | 9 | 340 | 30.6 | 54.7 | 0.00 | 0.00 | 0.00 | 68 | 998.5 |
| 20260504043024 | 10 | 340 | 29.0 | 54.7 | 0.00 | 0.00 | 0.00 | 68 | |
| 20260504042521 | 10 | 350 | 38.6 | 54.7 | 0.00 | 0.00 | 0.00 | 67 | |
| 20260504042037 | 10 | 355 | 30.6 | 59.5 | 0.00 | 0.00 | 0.00 | 67 | |
| 20260504041533 | 10 | 331 | 40.2 | 59.5 | 0.00 | 0.00 | 0.00 | 66 | |
| 20260504041517 | 10 | 331 | 38.6 | 59.5 | 0.00 | 0.00 | 0.00 | 66 | 998.0 |
| 20260504041027 | 10 | 331 | 40.2 | 56.3 | 0.00 | 0.00 | 0.00 | 66 | |
| 20260504040521 | 10 | 327 | 32.2 | 53.1 | 0.00 | 0.00 | 0.00 | 66 | |
| 20260504040105 | 10 | 322 | 32.2 | 53.1 | 0.00 | 0.00 | 0.00 | 67 | 997.7 |
| 20260504040037 | 10 | 9 | 30.6 | 53.1 | 0.00 | 0.00 | 0.00 | 67 | |
| 20260504035554 | 11 | 342 | 29.0 | 51.5 | 0.00 | 0.00 | 0.00 | 66 | |
| 20260504035028 | 11 | 333 | 32.2 | 51.5 | 0.00 | 0.00 | 0.00 | 64 | |
| 20260504034607 | 11 | 325 | 33.8 | 57.9 | 0.00 | 0.00 | 0.00 | 63 | 997.3 |
| 20260504034523 | 11 | 338 | 33.8 | 57.9 | 0.00 | 0.00 | 0.00 | 62 | |
| 20260504034018 | 12 | 342 | 40.2 | 57.9 | 0.00 | 0.00 | 0.00 | 61 | |
| 20260504033534 | 13 | 333 | 37.0 | 56.3 | 0.00 | 0.00 | 0.00 | 57 | |
| 20260504033043 | 15 | 341 | 27.4 | 48.3 | 0.00 | 0.00 | 0.00 | 50 | 996.1 |
| 20260504033029 | 15 | 28 | 29.0 | 48.3 | 0.00 | 0.00 | 0.00 | 49 | |
| 20260504032524 | 17 | 293 | 19.3 | 30.6 | 0.00 | 0.00 | 0.00 | 48 | |
| 20260504032039 | 17 | 269 | 16.1 | 24.1 | 0.00 | 0.00 | 0.00 | 46 | |
| 20260504031605 | 17 | 249 | 14.5 | 24.1 | 0.00 | 0.00 | 0.00 | 45 | 994.7 |
| 20260504031549 | 17 | 257 | 17.7 | 24.1 | 0.00 | 0.00 | 0.00 | 44 | |
| 20260504031024 | 17 | 266 | 14.5 | 25.7 | 0.00 | 0.00 | 0.00 | 44 | |
| 20260504030518 | 18 | 271 | 17.7 | 29.0 | 0.00 | 0.00 | 0.00 | 44 | |
| 20260504030106 | 17 | 248 | 17.7 | 32.2 | 0.00 | 0.00 | 0.00 | 44 | 994.9 |
| 20260504030031 | 18 | 281 | 17.7 | 35.4 | 0.00 | 0.00 | 0.00 | 43 | |
| 20260504025547 | 18 | 279 | 22.5 | 38.6 | 0.00 | 0.00 | 0.00 | 43 | |
| 20260504025041 | 18 | 272 | 25.7 | 49.9 | 0.00 | 0.00 | 0.00 | 41 | |
| 20260504024602 | 19 | 281 | 33.8 | 57.9 | 0.00 | 0.00 | 0.00 | 39 | 995.6 |
| 20260504024533 | 19 | 256 | 33.8 | 57.9 | 0.00 | 0.00 | 0.00 | 39 | |
| 20260504024029 | 20 | 279 | 29.0 | 51.5 | 0.00 | 0.00 | 0.00 | 37 | |
| 20260504023524 | 19 | 273 | 22.5 | 41.8 | 0.00 | 0.00 | 0.00 | 39 | |
| 20260504023114 | 20 | 270 | 27.4 | 66.0 | 0.00 | 0.00 | 0.00 | 37 | 995.8 |
| 20260504023017 | 20 | 262 | 27.4 | 66.0 | 0.00 | 0.00 | 0.00 | 37 | |
| 20260504022533 | 20 | 287 | 33.8 | 66.0 | 0.00 | 0.00 | 0.00 | 36 | |
| 20260504022026 | 20 | 266 | 29.0 | 48.3 | 0.00 | 0.00 | 0.00 | 36 | |
| 20260504021542 | 18 | 282 | 33.8 | 48.3 | 0.00 | 0.00 | 0.00 | 38 | 995.9 |
| 20260504021521 | 18 | 290 | 35.4 | 48.3 | 0.00 | 0.00 | 0.00 | 39 | |
| 20260504021015 | 18 | 267 | 14.5 | 20.9 | 0.00 | 0.00 | 0.00 | 41 | |
| 20260504020531 | 18 | 247 | 16.1 | 20.9 | 0.00 | 0.00 | 0.00 | 40 | |
| 20260504020100 | 18 | 252 | 14.5 | 25.7 | 0.00 | 0.00 | 0.00 | 39 | 995.0 |
| 20260504020026 | 18 | 260 | 14.5 | 25.7 | 0.00 | 0.00 | 0.00 | 38 | |
| 20260504015521 | 18 | 250 | 16.1 | 25.7 | 0.00 | 0.00 | 0.00 | 38 | |
| 20260504015016 | 19 | 245 | 17.7 | 27.4 | 0.00 | 0.00 | 0.00 | 38 | |
| 20260504014530 | 18 | 234 | 17.7 | 27.4 | 0.00 | 0.00 | 0.00 | 38 | |
| 20260504014503 | 18 | 240 | 16.1 | 27.4 | 0.00 | 0.00 | 0.00 | 38 | 995.1 |
| 20260504014044 | 18 | 259 | 14.5 | 27.4 | 0.00 | 0.00 | 0.00 | 39 | |
| 20260504013517 | 18 | 250 | 14.5 | 22.5 | 0.00 | 0.00 | 0.00 | 39 | |
| 20260504013032 | 18 | 240 | 16.1 | 25.7 | 0.00 | 0.00 | 0.00 | 38 | |
| 20260504013012 | 18 | 246 | 14.5 | 25.7 | 0.00 | 0.00 | 0.00 | 38 | 995.4 |
| 20260504012529 | 19 | 256 | 16.1 | 25.7 | 0.00 | 0.00 | 0.00 | 38 | |
| 20260504012024 | 19 | 244 | 14.5 | 24.1 | 0.00 | 0.00 | 0.00 | 38 | |
| 20260504011552 | 19 | 238 | 16.1 | 25.7 | 0.00 | 0.00 | 0.00 | 37 | 995.7 |
| 20260504011518 | 19 | 238 | 17.7 | 25.7 | 0.00 | 0.00 | 0.00 | 38 | |
| 20260504011032 | 19 | 244 | 17.7 | 25.7 | 0.00 | 0.00 | 0.00 | 38 | |
| 20260504010529 | 18 | 245 | 14.5 | 20.9 | 0.00 | 0.00 | 0.00 | 40 | |
| 20260504010117 | 18 | 226 | 12.9 | 24.1 | 0.00 | 0.00 | 0.00 | 40 | 996.1 |
| 20260504010024 | 18 | 256 | 14.5 | 24.1 | 0.00 | 0.00 | 0.00 | 40 | |
| 20260504005538 | 18 | 239 | 16.1 | 24.1 | 0.00 | 0.00 | 0.00 | 39 | |
| 20260504005033 | 18 | 242 | 12.9 | 20.9 | 0.00 | 0.00 | 0.00 | 40 | |
| 20260504004621 | 18 | 249 | 11.3 | 17.7 | 0.00 | 0.00 | 0.00 | 40 | 996.5 |
| 20260504004528 | 18 | 247 | 11.3 | 17.7 | 0.00 | 0.00 | 0.00 | 40 | |
| 20260504004021 | 19 | 245 | 9.7 | 16.1 | 0.00 | 0.00 | 0.00 | 39 | |
| 20260504003531 | 19 | 239 | 9.7 | 20.9 | 0.00 | 0.00 | 0.00 | 38 | |
| 20260504003053 | 19 | 258 | 11.3 | 20.9 | 0.00 | 0.00 | 0.00 | 39 | 996.9 |
| 20260504003024 | 19 | 260 | 12.9 | 20.9 | 0.00 | 0.00 | 0.00 | 39 | |
| 20260504002519 | 19 | 244 | 12.9 | 19.3 | 0.00 | 0.00 | 0.00 | 38 | |
| 20260504002033 | 20 | 244 | 14.5 | 22.5 | 0.00 | 0.00 | 0.00 | 37 | |
| 20260504001614 | 20 | 254 | 14.5 | 27.4 | 0.00 | 0.00 | 0.00 | 36 | 997.3 |
| 20260504001528 | 20 | 259 | 14.5 | 27.4 | 0.00 | 0.00 | 0.00 | 36 | |
| 20260504001023 | 20 | 243 | 16.1 | 27.4 | 0.00 | 0.00 | 0.00 | 35 | |
| 20260504000519 | 20 | 249 | 17.7 | 30.6 | 0.00 | 0.00 | 0.00 | 35 | |
| 20260504000113 | 20 | 238 | 20.9 | 37.0 | 0.00 | 0.00 | 0.00 | 34 | 997.8 |
| 20260504000033 | 20 | 268 | 20.9 | 37.0 | 0.00 | 0.00 | 0.00 | 34 | |
| 20260503235526 | 21 | 253 | 24.1 | 37.0 | 0.00 | 0.00 | 0.00 | 33 | |
| 20260503235019 | 21 | 263 | 22.5 | 35.4 | 0.00 | 0.00 | 0.00 | 32 | |
| 20260503234609 | 21 | 261 | 22.5 | 40.2 | 0.00 | 0.00 | 0.00 | 30 | 998.1 |
| 20260503234515 | 22 | 275 | 24.1 | 40.2 | 0.00 | 0.00 | 0.00 | 30 | |
| 20260503234032 | 21 | 264 | 25.7 | 40.2 | 0.00 | 0.00 | 0.00 | 30 | |
| 20260503233525 | 21 | 247 | 25.7 | 41.8 | 0.00 | 0.00 | 0.00 | 32 | |
| 20260503233036 | 21 | 253 | 24.1 | 41.8 | 0.00 | 0.00 | 0.00 | 33 | 998.4 |
| 20260503233020 | 21 | 255 | 25.7 | 41.8 | 0.00 | 0.00 | 0.00 | 33 | |
| 20260503232535 | 21 | 249 | 19.3 | 32.2 | 0.00 | 0.00 | 0.00 | 35 | |
| 20260503232029 | 21 | 250 | 20.9 | 32.2 | 0.00 | 0.00 | 0.00 | 35 | |
| 20260503231601 | 20 | 255 | 20.9 | 29.0 | 0.00 | 0.00 | 0.00 | 34 | 998.6 |
| 20260503231524 | 20 | 234 | 22.5 | 29.0 | 0.00 | 0.00 | 0.00 | 34 | |
| 20260503231019 | 20 | 241 | 19.3 | 29.0 | 0.00 | 0.00 | 0.00 | 35 | |
| 20260503230533 | 20 | 240 | 17.7 | 27.4 | 0.00 | 0.00 | 0.00 | 34 | |
| 20260503230122 | 20 | 267 | 19.3 | 29.0 | 0.00 | 0.00 | 0.00 | 34 | 999.0 |
| 20260503230028 | 20 | 251 | 20.9 | 29.0 | 0.00 | 0.00 | 0.00 | 35 | |
| 20260503225537 | 21 | 254 | 20.9 | 37.0 | 0.00 | 0.00 | 0.00 | 33 | |
| 20260503225053 | 21 | 251 | 20.9 | 38.6 | 0.00 | 0.00 | 0.00 | 34 | |
| 20260503224526 | 21 | 261 | 22.5 | 38.6 | 0.00 | 0.00 | 0.00 | 33 | |
| 20260503224503 | 21 | 288 | 22.5 | 38.6 | 0.00 | 0.00 | 0.00 | 33 | 999.4 |
| 20260503224020 | 21 | 259 | 25.7 | 37.0 | 0.00 | 0.00 | 0.00 | 31 | |
| 20260503223517 | 21 | 251 | 29.0 | 38.6 | 0.00 | 0.00 | 0.00 | 30 | |
| 20260503223051 | 21 | 250 | 22.5 | 38.6 | 0.00 | 0.00 | 0.00 | 31 | 999.8 |
| 20260503223032 | 21 | 275 | 24.1 | 38.6 | 0.00 | 0.00 | 0.00 | 30 | |
| 20260503222545 | 21 | 265 | 24.1 | 40.2 | 0.00 | 0.00 | 0.00 | 32 | |
| 20260503222020 | 21 | 250 | 27.4 | 40.2 | 0.00 | 0.00 | 0.00 | 31 | |
| 20260503221557 | 21 | 252 | 22.5 | 43.5 | 0.00 | 0.00 | 0.00 | 31 | 1000.0 |
| 20260503221536 | 21 | 244 | 24.1 | 43.5 | 0.00 | 0.00 | 0.00 | 31 | |
| 20260503221051 | 21 | 278 | 27.4 | 46.7 | 0.00 | 0.00 | 0.00 | 30 | |
| 20260503220544 | 21 | 270 | 30.6 | 46.7 | 0.00 | 0.00 | 0.00 | 30 | |
| 20260503220032 | 21 | 254 | 24.1 | 43.5 | 0.00 | 0.00 | 0.00 | 32 | 1000.4 |
| 20260503220017 | 21 | 246 | 24.1 | 43.5 | 0.00 | 0.00 | 0.00 | 32 | |
| 20260503215529 | 21 | 256 | 29.0 | 45.1 | 0.00 | 0.00 | 0.00 | 29 | |
| 20260503215025 | 21 | 272 | 27.4 | 51.5 | 0.00 | 0.00 | 0.00 | 29 | |
| 20260503214555 | 21 | 261 | 32.2 | 51.5 | 0.00 | 0.00 | 0.00 | 29 | 1000.6 |
| 20260503214541 | 21 | 251 | 30.6 | 45.1 | 0.00 | 0.00 | 0.00 | 29 | |
| 20260503214035 | 21 | 245 | 27.4 | 43.5 | 0.00 | 0.00 | 0.00 | 30 | |
| 20260503213528 | 21 | 239 | 24.1 | 51.5 | 0.00 | 0.00 | 0.00 | 32 | |
| 20260503213104 | 21 | 276 | 32.2 | 51.5 | 0.00 | 0.00 | 0.00 | 27 | 1001.0 |
| 20260503213023 | 22 | 250 | 30.6 | 51.5 | 0.00 | 0.00 | 0.00 | 28 | |
| 20260503212538 | 21 | 266 | 30.6 | 43.5 | 0.00 | 0.00 | 0.00 | 28 | |
| 20260503212051 | 21 | 272 | 29.0 | 43.5 | 0.00 | 0.00 | 0.00 | 29 | |
| 20260503211621 | 21 | 263 | 25.7 | 46.7 | 0.00 | 0.00 | 0.00 | 29 | 1001.4 |
| 20260503211523 | 21 | 250 | 25.7 | 46.7 | 0.00 | 0.00 | 0.00 | 28 | |
| 20260503211015 | 21 | 281 | 30.6 | 48.3 | 0.00 | 0.00 | 0.00 | 28 | |
| 20260503210529 | 21 | 278 | 33.8 | 46.7 | 0.00 | 0.00 | 0.00 | 27 | |
| 20260503210023 | 21 | 275 | 24.1 | 40.2 | 0.00 | 0.00 | 0.00 | 30 | |
| 20260503210005 | 21 | 270 | 25.7 | 40.2 | 0.00 | 0.00 | 0.00 | 30 | 1001.9 |
| 20260503205516 | 21 | 249 | 27.4 | 40.2 | 0.00 | 0.00 | 0.00 | 30 | |
| 20260503205032 | 21 | 270 | 25.7 | 40.2 | 0.00 | 0.00 | 0.00 | 31 | |
| 20260503204555 | 20 | 273 | 22.5 | 37.0 | 0.00 | 0.00 | 0.00 | 31 | 1002.2 |
| 20260503204528 | 20 | 248 | 20.9 | 37.0 | 0.00 | 0.00 | 0.00 | 31 | |
| 20260503204024 | 20 | 241 | 22.5 | 35.4 | 0.00 | 0.00 | 0.00 | 32 | |
| 20260503203521 | 20 | 269 | 22.5 | 41.8 | 0.00 | 0.00 | 0.00 | 33 | |
| 20260503203117 | 20 | 248 | 24.1 | 41.8 | 0.00 | 0.00 | 0.00 | 32 | 1002.5 |
| 20260503203037 | 20 | 245 | 24.1 | 41.8 | 0.00 | 0.00 | 0.00 | 32 | |
| 20260503202552 | 20 | 262 | 32.2 | 43.5 | 0.00 | 0.00 | 0.00 | 30 | |
| 20260503202025 | 20 | 284 | 30.6 | 48.3 | 0.00 | 0.00 | 0.00 | 30 | |
| 20260503201616 | 21 | 275 | 32.2 | 48.3 | 0.00 | 0.00 | 0.00 | 30 | 1003.0 |
| 20260503201541 | 21 | 244 | 32.2 | 48.3 | 0.00 | 0.00 | 0.00 | 30 | |
| 20260503201036 | 21 | 248 | 29.0 | 45.1 | 0.00 | 0.00 | 0.00 | 30 | |
| 20260503200531 | 21 | 240 | 29.0 | 41.8 | 0.00 | 0.00 | 0.00 | 30 | |
| 20260503200115 | 21 | 254 | 24.1 | 48.3 | 0.00 | 0.00 | 0.00 | 31 | 1003.4 |
| 20260503200024 | 21 | 258 | 24.1 | 48.3 | 0.00 | 0.00 | 0.00 | 33 | |
| 20260503195538 | 21 | 243 | 25.7 | 48.3 | 0.00 | 0.00 | 0.00 | 31 | |
| 20260503195032 | 21 | 254 | 27.4 | 40.2 | 0.00 | 0.00 | 0.00 | 32 | |
| 20260503194612 | 20 | 250 | 25.7 | 45.1 | 0.00 | 0.00 | 0.00 | 32 | 1003.8 |
| 20260503194527 | 20 | 258 | 25.7 | 45.1 | 0.00 | 0.00 | 0.00 | 32 | |
| 20260503194038 | 20 | 260 | 29.0 | 45.1 | 0.00 | 0.00 | 0.00 | 32 | |
| 20260503193532 | 20 | 248 | 29.0 | 45.1 | 0.00 | 0.00 | 0.00 | 32 | |
| 20260503193115 | 20 | 268 | 25.7 | 41.8 | 0.00 | 0.00 | 0.00 | 32 | 1004.1 |
| 20260503193027 | 20 | 267 | 27.4 | 41.8 | 0.00 | 0.00 | 0.00 | 33 | |
| 20260503192518 | 20 | 270 | 24.1 | 43.5 | 0.00 | 0.00 | 0.00 | 32 | |
| 20260503192042 | 20 | 250 | 29.0 | 43.5 | 0.00 | 0.00 | 0.00 | 33 | |
| 20260503191534 | 20 | 250 | 24.1 | 41.8 | 0.00 | 0.00 | 0.00 | 33 | |
| 20260503191502 | 20 | 254 | 22.5 | 41.8 | 0.00 | 0.00 | 0.00 | 32 | 1004.5 |
| 20260503191028 | 20 | 259 | 25.7 | 45.1 | 0.00 | 0.00 | 0.00 | 33 | |
| 20260503190522 | 20 | 243 | 25.7 | 51.5 | 0.00 | 0.00 | 0.00 | 34 | |
| 20260503190034 | 20 | 274 | 20.9 | 40.2 | 0.00 | 0.00 | 0.00 | 34 | |
| 20260503185529 | 20 | 251 | 27.4 | 37.0 | 0.00 | 0.00 | 0.00 | 34 | |
| 20260503185026 | 20 | 263 | 24.1 | 32.2 | 0.00 | 0.00 | 0.00 | 33 | |
| 20260503184615 | 20 | 234 | 22.5 | 32.2 | 0.00 | 0.00 | 0.00 | 34 | 1005.1 |
| 20260503184522 | 20 | 244 | 24.1 | 32.2 | 0.00 | 0.00 | 0.00 | 33 | |
| 20260503184035 | 20 | 250 | 20.9 | 35.4 | 0.00 | 0.00 | 0.00 | 35 | |
| 20260503183529 | 20 | 254 | 16.1 | 35.4 | 0.00 | 0.00 | 0.00 | 35 | |
| 20260503183138 | 19 | 244 | 19.3 | 33.8 | 0.00 | 0.00 | 0.00 | 35 | 1005.8 |
| 20260503183042 | 19 | 256 | 19.3 | 33.8 | 0.00 | 0.00 | 0.00 | 34 | |
| 20260503182515 | 19 | 261 | 19.3 | 33.8 | 0.00 | 0.00 | 0.00 | 36 | |
| 20260503182030 | 19 | 250 | 20.9 | 29.0 | 0.00 | 0.00 | 0.00 | 35 | |
| 20260503181635 | 18 | 267 | 19.3 | 29.0 | 0.00 | 0.00 | 0.00 | 36 | 1006.4 |
| 20260503181545 | 18 | 233 | 22.5 | 29.0 | 0.00 | 0.00 | 0.00 | 35 | |
| 20260503181037 | 18 | 268 | 19.3 | 35.4 | 0.00 | 0.00 | 0.00 | 36 | |
| 20260503180552 | 18 | 238 | 24.1 | 35.4 | 0.00 | 0.00 | 0.00 | 36 | |
| 20260503180118 | 18 | 258 | 17.7 | 37.0 | 0.00 | 0.00 | 0.00 | 37 | 1007.0 |
| 20260503180026 | 18 | 256 | 19.3 | 37.0 | 0.00 | 0.00 | 0.00 | 37 | |
| 20260503175519 | 18 | 261 | 20.9 | 38.6 | 0.00 | 0.00 | 0.00 | 38 | |
| 20260503175034 | 17 | 228 | 25.7 | 38.6 | 0.00 | 0.00 | 0.00 | 37 | |
| 20260503174551 | 17 | 236 | 22.5 | 35.4 | 0.00 | 0.00 | 0.00 | 37 | 1007.6 |
| 20260503174529 | 17 | 226 | 24.1 | 35.4 | 0.00 | 0.00 | 0.00 | 38 | |
| 20260503174022 | 17 | 252 | 16.1 | 33.8 | 0.00 | 0.00 | 0.00 | 38 | |
| 20260503173535 | 17 | 227 | 22.5 | 35.4 | 0.00 | 0.00 | 0.00 | 37 | |
| 20260503173058 | 17 | 252 | 20.9 | 35.4 | 0.00 | 0.00 | 0.00 | 39 | 1008.1 |
| 20260503173027 | 17 | 248 | 22.5 | 35.4 | 0.00 | 0.00 | 0.00 | 38 | |
| 20260503172520 | 17 | 241 | 22.5 | 35.4 | 0.00 | 0.00 | 0.00 | 39 | |
| 20260503172017 | 17 | 236 | 24.1 | 32.2 | 0.00 | 0.00 | 0.00 | 38 | |
| 20260503171617 | 16 | 234 | 20.9 | 29.0 | 0.00 | 0.00 | 0.00 | 39 | 1008.5 |
| 20260503171531 | 17 | 234 | 20.9 | 29.0 | 0.00 | 0.00 | 0.00 | 40 | |
| 20260503171027 | 16 | 261 | 16.1 | 25.7 | 0.00 | 0.00 | 0.00 | 40 | |
| 20260503170543 | 16 | 242 | 19.3 | 27.4 | 0.00 | 0.00 | 0.00 | 40 | |
| 20260503170119 | 15 | 221 | 16.1 | 30.6 | 0.00 | 0.00 | 0.00 | 41 | 1008.7 |
| 20260503150541 | 11 | 240 | 12.9 | 17.7 | 0.00 | 0.00 | 0.00 | 56 | |
| 20260503150116 | 10 | 248 | 11.3 | 17.7 | 0.00 | 0.00 | 0.00 | 58 | 1010.9 |
| 20260503131023 | 6 | 271 | 9.7 | 12.9 | 0.00 | 0.00 | 0.00 | 77 | |
| 20260503130539 | 6 | 267 | 8.0 | 11.3 | 0.00 | 0.00 | 0.00 | 77 | |
| 20260503130116 | 6 | 263 | 4.8 | 11.3 | 0.00 | 0.00 | 0.00 | 78 | 1012.0 |
| 20260503110534 | 2 | 355 | 1.6 | 3.2 | 0.00 | 0.00 | 0.00 | 85 | |
| 20260503110116 | 2 | 355 | 0.0 | 3.2 | 0.00 | 0.00 | 0.00 | 84 | 1011.9 |
| 20260503100114 | 2 | 355 | 1.6 | 4.8 | 0.00 | 0.00 | 0.00 | 83 | 1012.2 |
| 20260503081619 | 3 | 355 | 0.0 | 4.8 | 0.00 | 0.00 | 0.00 | 82 | 1012.1 |
| 20260503081516 | 4 | 355 | 1.6 | 4.8 | 0.00 | 0.00 | 0.00 | 82 | |
| 20260503081032 | 4 | 355 | 3.2 | 6.4 | 0.00 | 0.00 | 0.00 | 82 | |
| 20260503080524 | 4 | 355 | 3.2 | 6.4 | 0.00 | 0.00 | 0.00 | 82 | |
| 20260503072520 | 5 | 355 | 0.0 | 0.0 | 0.00 | 0.00 | 0.00 | 77 | |
| 20260503072016 | 6 | 355 | 0.0 | 3.2 | 0.00 | 0.00 | 0.00 | 77 | |
| 20260503071606 | 5 | 355 | 0.0 | 4.8 | 0.00 | 0.00 | 0.00 | 76 | 1012.0 |
| 20260503071532 | 6 | 355 | 1.6 | 4.8 | 0.00 | 0.00 | 0.00 | 77 | |
| 20260503071027 | 6 | 355 | 3.2 | 6.4 | 0.00 | 0.00 | 0.00 | 77 | |
| 20260503070523 | 6 | 355 | 3.2 | 6.4 | 0.00 | 0.00 | 0.00 | 78 |